sensor_id;sensor_type;location;lat;lon;timestamp;pressure;altitude;pressure_sealevel;temperature;humidity
12801;BME280;6464;42.494;27.470;2022-09-09T00:12:04;101584.84;;;18.33;100.00
12801;BME280;6464;42.494;27.470;2022-09-09T00:15:02;101615.63;;;18.43;100.00
12801;BME280;6464;42.494;27.470;2022-09-09T00:18:03;101483.59;;;17.80;100.00
12801;BME280;6464;42.494;27.470;2022-09-09T00:21:00;101648.44;;;18.71;100.00
12801;BME280;6464;42.494;27.470;2022-09-09T00:24:00;101448.94;;;17.53;100.00
12801;BME280;6464;42.494;27.470;2022-09-09T00:30:12;101458.06;;;17.71;100.00
12801;BME280;6464;42.494;27.470;2022-09-09T00:33:20;101520.91;;;18.05;100.00
12801;BME280;6464;42.494;27.470;2022-09-09T00:36:23;101555.22;;;18.15;100.00
12801;BME280;6464;42.494;27.470;2022-09-09T00:39:24;101441.09;;;17.48;100.00
12801;BME280;6464;42.494;27.470;2022-09-09T00:42:25;101468.38;;;17.57;100.00
12801;BME280;6464;42.494;27.470;2022-09-09T00:45:30;101462.31;;;17.52;100.00
12801;BME280;6464;42.494;27.470;2022-09-09T00:48:49;101464.81;;;17.56;100.00
12801;BME280;6464;42.494;27.470;2022-09-09T00:52:11;101442.19;;;17.43;100.00
12801;BME280;6464;42.494;27.470;2022-09-09T00:55:21;101567.41;;;18.22;100.00
12801;BME280;6464;42.494;27.470;2022-09-09T00:58:11;101512.47;;;17.92;100.00
12801;BME280;6464;42.494;27.470;2022-09-09T04:11:48;101613.47;;;16.34;100.00
12801;BME280;6464;42.494;27.470;2022-09-09T04:15:20;101440.66;;;15.33;100.00
12801;BME280;6464;42.494;27.470;2022-09-09T04:18:05;101518.50;;;15.73;100.00
12801;BME280;6464;42.494;27.470;2022-09-09T04:20:33;101514.97;;;15.72;100.00
12801;BME280;6464;42.494;27.470;2022-09-09T04:23:02;101638.69;;;16.52;100.00
12801;BME280;6464;42.494;27.470;2022-09-09T04:25:30;101540.91;;;15.95;100.00
12801;BME280;6464;42.494;27.470;2022-09-09T04:28:04;101496.50;;;15.66;100.00
12801;BME280;6464;42.494;27.470;2022-09-09T04:30:32;101508.91;;;15.65;100.00
12801;BME280;6464;42.494;27.470;2022-09-09T04:33:00;101595.47;;;16.11;100.00
12801;BME280;6464;42.494;27.470;2022-09-09T04:35:30;101664.31;;;16.56;100.00
12801;BME280;6464;42.494;27.470;2022-09-09T04:37:59;101571.16;;;15.92;100.00
12801;BME280;6464;42.494;27.470;2022-09-09T04:40:32;101509.78;;;15.67;100.00
12801;BME280;6464;42.494;27.470;2022-09-09T04:43:01;101697.59;;;16.73;100.00
12801;BME280;6464;42.494;27.470;2022-09-09T04:45:31;101529.81;;;15.79;100.00
12801;BME280;6464;42.494;27.470;2022-09-09T04:47:59;101621.47;;;16.33;100.00
12801;BME280;6464;42.494;27.470;2022-09-09T04:53:12;101555.97;;;15.96;100.00
12801;BME280;6464;42.494;27.470;2022-09-09T04:55:43;101555.13;;;15.94;100.00
12801;BME280;6464;42.494;27.470;2022-09-09T04:58:20;101637.94;;;16.47;100.00
12801;BME280;6464;42.494;27.470;2022-09-09T05:00:51;101591.44;;;16.28;100.00
12801;BME280;6464;42.494;27.470;2022-09-09T05:03:19;101666.38;;;16.78;100.00
12801;BME280;6464;42.494;27.470;2022-09-09T05:05:47;101635.84;;;16.58;100.00
12801;BME280;6464;42.494;27.470;2022-09-09T05:08:17;101570.78;;;16.37;100.00
12801;BME280;6464;42.494;27.470;2022-09-09T05:10:46;101729.44;;;17.38;100.00
12801;BME280;6464;42.494;27.470;2022-09-09T05:13:20;101621.16;;;16.76;100.00
12801;BME280;6464;42.494;27.470;2022-09-09T05:15:52;101693.66;;;17.17;100.00
12801;BME280;6464;42.494;27.470;2022-09-09T05:18:46;101570.16;;;16.59;100.00
12801;BME280;6464;42.494;27.470;2022-09-09T05:21:15;101728.69;;;17.62;100.00
12801;BME280;6464;42.494;27.470;2022-09-09T05:23:45;101618.84;;;16.93;100.00
12801;BME280;6464;42.494;27.470;2022-09-09T05:26:15;101642.50;;;17.04;100.00
12801;BME280;6464;42.494;27.470;2022-09-09T05:28:59;101691.97;;;17.42;100.00
12801;BME280;6464;42.494;27.470;2022-09-09T05:31:32;101728.94;;;17.83;100.00
12801;BME280;6464;42.494;27.470;2022-09-09T05:34:05;101579.22;;;17.11;100.00
12801;BME280;6464;42.494;27.470;2022-09-09T05:36:33;101546.78;;;16.98;100.00
12801;BME280;6464;42.494;27.470;2022-09-09T05:39:13;101607.50;;;17.16;100.00
12801;BME280;6464;42.494;27.470;2022-09-09T05:41:42;101661.63;;;17.46;100.00
12801;BME280;6464;42.494;27.470;2022-09-09T05:44:31;101626.38;;;17.09;100.00
12801;BME280;6464;42.494;27.470;2022-09-09T05:47:00;101675.06;;;17.43;100.00
12801;BME280;6464;42.494;27.470;2022-09-09T05:49:29;101781.13;;;18.19;100.00
12801;BME280;6464;42.494;27.470;2022-09-09T05:52:03;101619.81;;;17.47;100.00
12801;BME280;6464;42.494;27.470;2022-09-09T05:54:36;101645.06;;;17.63;100.00
12801;BME280;6464;42.494;27.470;2022-09-09T05:57:08;101707.25;;;18.20;100.00
12801;BME280;6464;42.494;27.470;2022-09-09T05:59:39;101680.50;;;17.95;100.00
12801;BME280;6464;42.494;27.470;2022-09-09T06:02:08;101781.41;;;18.63;100.00
12801;BME280;6464;42.494;27.470;2022-09-09T06:04:38;101657.22;;;18.00;100.00
12801;BME280;6464;42.494;27.470;2022-09-09T06:07:08;101678.41;;;18.05;100.00
12801;BME280;6464;42.494;27.470;2022-09-09T06:09:36;101680.19;;;17.78;100.00
12801;BME280;6464;42.494;27.470;2022-09-09T06:12:04;101632.41;;;17.70;100.00
12801;BME280;6464;42.494;27.470;2022-09-09T06:14:33;101801.09;;;18.87;100.00
12801;BME280;6464;42.494;27.470;2022-09-09T06:17:15;101660.03;;;18.20;100.00
12801;BME280;6464;42.494;27.470;2022-09-09T06:19:44;101759.00;;;18.67;100.00
12801;BME280;6464;42.494;27.470;2022-09-09T06:22:13;101823.38;;;19.11;100.00
12801;BME280;6464;42.494;27.470;2022-09-09T06:24:56;101730.63;;;18.63;100.00
12801;BME280;6464;42.494;27.470;2022-09-09T06:27:27;101657.75;;;18.35;100.00
12801;BME280;6464;42.494;27.470;2022-09-09T06:30:15;101833.56;;;19.48;100.00
12801;BME280;6464;42.494;27.470;2022-09-09T06:32:55;101686.84;;;18.67;100.00
12801;BME280;6464;42.494;27.470;2022-09-09T06:35:35;101696.25;;;18.79;100.00
12801;BME280;6464;42.494;27.470;2022-09-09T06:38:22;101742.06;;;19.17;100.00
12801;BME280;6464;42.494;27.470;2022-09-09T06:41:03;101832.28;;;19.60;100.00
12801;BME280;6464;42.494;27.470;2022-09-09T06:43:33;101780.97;;;19.25;100.00
12801;BME280;6464;42.494;27.470;2022-09-09T06:46:03;101827.63;;;19.65;100.00
12801;BME280;6464;42.494;27.470;2022-09-09T06:51:52;101816.66;;;19.71;100.00
12801;BME280;6464;42.494;27.470;2022-09-09T06:54:22;101812.94;;;19.75;100.00
12801;BME280;6464;42.494;27.470;2022-09-09T06:57:02;101835.81;;;20.06;100.00
12801;BME280;6464;42.494;27.470;2022-09-09T06:59:34;101896.69;;;20.46;100.00
12801;BME280;6464;42.494;27.470;2022-09-09T07:02:04;101755.34;;;19.65;100.00
12801;BME280;6464;42.494;27.470;2022-09-09T07:05:02;101752.38;;;19.73;100.00
12801;BME280;6464;42.494;27.470;2022-09-09T07:10:53;101797.63;;;20.01;100.00
12801;BME280;6464;42.494;27.470;2022-09-09T07:13:27;101763.94;;;19.95;100.00
12801;BME280;6464;42.494;27.470;2022-09-09T07:16:10;101850.28;;;20.46;100.00
12801;BME280;6464;42.494;27.470;2022-09-09T07:18:52;101924.91;;;21.19;100.00
12801;BME280;6464;42.494;27.470;2022-09-09T07:21:37;101867.38;;;20.86;100.00
12801;BME280;6464;42.494;27.470;2022-09-09T07:24:34;101766.97;;;20.52;100.00
12801;BME280;6464;42.494;27.470;2022-09-09T07:28:12;101874.59;;;21.45;100.00
12801;BME280;6464;42.494;27.470;2022-09-09T07:33:50;101951.06;;;21.94;100.00
12801;BME280;6464;42.494;27.470;2022-09-09T07:36:44;101952.50;;;22.22;100.00
12801;BME280;6464;42.494;27.470;2022-09-09T07:39:13;101830.16;;;21.58;100.00
12801;BME280;6464;42.494;27.470;2022-09-09T07:41:44;101898.38;;;22.11;100.00
12801;BME280;6464;42.494;27.470;2022-09-09T07:44:18;101967.84;;;22.75;100.00
12801;BME280;6464;42.494;27.470;2022-09-09T07:46:46;101896.03;;;22.41;100.00
12801;BME280;6464;42.494;27.470;2022-09-09T07:49:14;101963.63;;;23.05;100.00
12801;BME280;6464;42.494;27.470;2022-09-09T07:51:43;101928.88;;;23.01;100.00
12801;BME280;6464;42.494;27.470;2022-09-09T07:54:17;101950.09;;;23.24;100.00
12801;BME280;6464;42.494;27.470;2022-09-09T07:56:46;101913.97;;;22.76;100.00
12801;BME280;6464;42.494;27.470;2022-09-09T07:59:14;101940.13;;;23.09;100.00
12801;BME280;6464;42.494;27.470;2022-09-09T08:01:43;101904.19;;;23.10;100.00
12801;BME280;6464;42.494;27.470;2022-09-09T08:04:12;101971.00;;;23.37;100.00
12801;BME280;6464;42.494;27.470;2022-09-09T08:06:41;101900.88;;;23.05;100.00
12801;BME280;6464;42.494;27.470;2022-09-09T08:09:09;101975.25;;;23.75;100.00
12801;BME280;6464;42.494;27.470;2022-09-09T08:11:37;101923.13;;;23.59;100.00
12801;BME280;6464;42.494;27.470;2022-09-09T08:14:03;101985.53;;;24.18;100.00
12801;BME280;6464;42.494;27.470;2022-09-09T08:16:36;101969.06;;;24.22;100.00
12801;BME280;6464;42.494;27.470;2022-09-09T08:19:04;101988.75;;;24.40;100.00
12801;BME280;6464;42.494;27.470;2022-09-09T08:21:32;101981.09;;;24.32;100.00
12801;BME280;6464;42.494;27.470;2022-09-09T08:24:01;101959.69;;;24.29;100.00
12801;BME280;6464;42.494;27.470;2022-09-09T08:26:29;101910.09;;;24.16;100.00
12801;BME280;6464;42.494;27.470;2022-09-09T08:29:00;101964.22;;;24.60;100.00
12801;BME280;6464;42.494;27.470;2022-09-09T08:31:29;101964.88;;;24.96;100.00
12801;BME280;6464;42.494;27.470;2022-09-09T08:33:59;101903.19;;;24.44;100.00
12801;BME280;6464;42.494;27.470;2022-09-09T08:36:29;101888.63;;;24.30;100.00
12801;BME280;6464;42.494;27.470;2022-09-09T08:38:58;101874.28;;;24.30;100.00
12801;BME280;6464;42.494;27.470;2022-09-09T08:44:32;101905.13;;;25.02;100.00
12801;BME280;6464;42.494;27.470;2022-09-09T08:47:07;101938.63;;;25.58;100.00
12801;BME280;6464;42.494;27.470;2022-09-09T08:49:59;101967.41;;;25.87;100.00
12801;BME280;6464;42.494;27.470;2022-09-09T08:52:30;101961.09;;;26.15;100.00
12801;BME280;6464;42.494;27.470;2022-09-09T08:55:03;101923.59;;;25.97;100.00
12801;BME280;6464;42.494;27.470;2022-09-09T08:57:32;101936.84;;;26.28;100.00
12801;BME280;6464;42.494;27.470;2022-09-09T09:00:00;101949.56;;;26.55;100.00
12801;BME280;6464;42.494;27.470;2022-09-09T09:02:40;101883.88;;;26.38;100.00
12801;BME280;6464;42.494;27.470;2022-09-09T09:05:23;101948.25;;;26.87;100.00
12801;BME280;6464;42.494;27.470;2022-09-09T09:08:11;101948.06;;;26.63;100.00
12801;BME280;6464;42.494;27.470;2022-09-09T09:10:49;101859.06;;;26.05;100.00
12801;BME280;6464;42.494;27.470;2022-09-09T09:13:30;101931.25;;;26.85;100.00
12801;BME280;6464;42.494;27.470;2022-09-09T09:16:19;101910.41;;;26.60;100.00
12801;BME280;6464;42.494;27.470;2022-09-09T09:19:00;101883.16;;;26.76;100.00
12801;BME280;6464;42.494;27.470;2022-09-09T09:21:53;101923.31;;;27.22;100.00
12801;BME280;6464;42.494;27.470;2022-09-09T09:24:33;101912.94;;;27.29;100.00
12801;BME280;6464;42.494;27.470;2022-09-09T09:27:16;101917.19;;;27.33;100.00
12801;BME280;6464;42.494;27.470;2022-09-09T09:29:50;101913.16;;;27.38;100.00
12801;BME280;6464;42.494;27.470;2022-09-09T09:32:23;101912.72;;;27.57;100.00
12801;BME280;6464;42.494;27.470;2022-09-09T09:34:56;101897.03;;;28.49;100.00
12801;BME280;6464;42.494;27.470;2022-09-09T09:37:35;101980.19;;;31.64;100.00
12801;BME280;6464;42.494;27.470;2022-09-09T09:40:10;102028.34;;;34.20;100.00
12801;BME280;6464;42.494;27.470;2022-09-09T09:42:50;102043.06;;;35.63;100.00
12801;BME280;6464;42.494;27.470;2022-09-09T09:45:32;102039.78;;;37.62;100.00
12801;BME280;6464;42.494;27.470;2022-09-09T09:48:10;102072.97;;;39.56;100.00
12801;BME280;6464;42.494;27.470;2022-09-09T09:50:51;102069.38;;;39.33;100.00
12801;BME280;6464;42.494;27.470;2022-09-09T09:53:34;102050.28;;;39.99;100.00
12801;BME280;6464;42.494;27.470;2022-09-09T09:56:09;102052.25;;;41.00;100.00
12801;BME280;6464;42.494;27.470;2022-09-09T09:58:52;102005.13;;;40.06;100.00
12801;BME280;6464;42.494;27.470;2022-09-09T10:01:29;101988.78;;;39.15;100.00
12801;BME280;6464;42.494;27.470;2022-09-09T10:04:03;102025.19;;;40.45;100.00
12801;BME280;6464;42.494;27.470;2022-09-09T10:06:43;101978.34;;;40.94;100.00
12801;BME280;6464;42.494;27.470;2022-09-09T10:09:21;102024.19;;;41.03;100.00
12801;BME280;6464;42.494;27.470;2022-09-09T10:11:56;102002.16;;;41.38;100.00
12801;BME280;6464;42.494;27.470;2022-09-09T10:14:33;101996.91;;;41.22;100.00
12801;BME280;6464;42.494;27.470;2022-09-09T10:17:13;102001.06;;;41.11;100.00
12801;BME280;6464;42.494;27.470;2022-09-09T10:19:53;101982.75;;;40.16;100.00
12801;BME280;6464;42.494;27.470;2022-09-09T10:22:28;102013.47;;;41.71;100.00
12801;BME280;6464;42.494;27.470;2022-09-09T10:25:22;101882.19;;;36.04;100.00
12801;BME280;6464;42.494;27.470;2022-09-09T10:28:07;101891.47;;;34.56;100.00
12801;BME280;6464;42.494;27.470;2022-09-09T10:30:45;101849.00;;;32.27;100.00
12801;BME280;6464;42.494;27.470;2022-09-09T10:33:24;101765.38;;;31.46;100.00
12801;BME280;6464;42.494;27.470;2022-09-09T10:36:00;101833.31;;;31.59;100.00
12801;BME280;6464;42.494;27.470;2022-09-09T10:38:36;101839.59;;;31.50;100.00
12801;BME280;6464;42.494;27.470;2022-09-09T10:41:25;101849.25;;;31.94;100.00
12801;BME280;6464;42.494;27.470;2022-09-09T10:44:28;101796.13;;;31.48;100.00
12801;BME280;6464;42.494;27.470;2022-09-09T10:47:29;101839.81;;;31.37;100.00
12801;BME280;6464;42.494;27.470;2022-09-09T10:52:54;101827.19;;;32.65;100.00
12801;BME280;6464;42.494;27.470;2022-09-09T10:55:31;101854.19;;;32.39;100.00
12801;BME280;6464;42.494;27.470;2022-09-09T10:58:04;101857.09;;;32.38;100.00
12801;BME280;6464;42.494;27.470;2022-09-09T11:00:38;101845.09;;;32.19;100.00
12801;BME280;6464;42.494;27.470;2022-09-09T11:03:14;101795.50;;;31.85;100.00
12801;BME280;6464;42.494;27.470;2022-09-09T11:05:46;101831.50;;;31.29;100.00
12801;BME280;6464;42.494;27.470;2022-09-09T11:08:18;101818.44;;;31.12;100.00
12801;BME280;6464;42.494;27.470;2022-09-09T11:10:48;101755.03;;;30.58;100.00
12801;BME280;6464;42.494;27.470;2022-09-09T11:13:24;101818.13;;;31.76;100.00
12801;BME280;6464;42.494;27.470;2022-09-09T11:16:00;101837.19;;;31.97;100.00
12801;BME280;6464;42.494;27.470;2022-09-09T11:18:37;101828.88;;;32.08;100.00
12801;BME280;6464;42.494;27.470;2022-09-09T11:21:12;101820.28;;;32.22;100.00
12801;BME280;6464;42.494;27.470;2022-09-09T11:23:45;101779.91;;;32.26;100.00
12801;BME280;6464;42.494;27.470;2022-09-09T11:26:18;101823.91;;;33.28;100.00
12801;BME280;6464;42.494;27.470;2022-09-09T11:29:02;101813.63;;;32.06;100.00
12801;BME280;6464;42.494;27.470;2022-09-09T11:31:44;101780.75;;;32.07;100.00
12801;BME280;6464;42.494;27.470;2022-09-09T11:34:25;101788.53;;;32.21;100.00
12801;BME280;6464;42.494;27.470;2022-09-09T11:37:09;101770.72;;;32.46;100.00
12801;BME280;6464;42.494;27.470;2022-09-09T11:39:59;101807.50;;;32.62;100.00
12801;BME280;6464;42.494;27.470;2022-09-09T11:42:31;101802.59;;;32.75;100.00
12801;BME280;6464;42.494;27.470;2022-09-09T11:45:09;101810.63;;;33.33;100.00
12801;BME280;6464;42.494;27.470;2022-09-09T11:47:36;101796.66;;;32.99;100.00
12801;BME280;6464;42.494;27.470;2022-09-09T11:50:22;101785.19;;;32.66;100.00
12801;BME280;6464;42.494;27.470;2022-09-09T11:53:17;101771.13;;;32.61;100.00
12801;BME280;6464;42.494;27.470;2022-09-09T11:55:46;101787.81;;;33.15;100.00
12801;BME280;6464;42.494;27.470;2022-09-09T11:58:17;101762.16;;;32.98;100.00
12801;BME280;6464;42.494;27.470;2022-09-09T12:00:48;101785.22;;;33.23;100.00
12801;BME280;6464;42.494;27.470;2022-09-09T12:03:38;101780.56;;;32.86;100.00
12801;BME280;6464;42.494;27.470;2022-09-09T12:06:14;101710.94;;;32.24;100.00
12801;BME280;6464;42.494;27.470;2022-09-09T12:08:44;101783.28;;;33.33;100.00
12801;BME280;6464;42.494;27.470;2022-09-09T12:11:24;101763.81;;;33.36;100.00
12801;BME280;6464;42.494;27.470;2022-09-09T12:13:53;101778.25;;;32.82;100.00
12801;BME280;6464;42.494;27.470;2022-09-09T12:16:33;101783.59;;;33.30;100.00
12801;BME280;6464;42.494;27.470;2022-09-09T12:19:06;101776.81;;;33.34;100.00
12801;BME280;6464;42.494;27.470;2022-09-09T12:21:37;101805.28;;;33.96;100.00
12801;BME280;6464;42.494;27.470;2022-09-09T12:24:09;101775.28;;;33.22;100.00
12801;BME280;6464;42.494;27.470;2022-09-09T12:26:40;101767.09;;;33.22;100.00
12801;BME280;6464;42.494;27.470;2022-09-09T12:29:16;101767.78;;;32.77;100.00
12801;BME280;6464;42.494;27.470;2022-09-09T12:31:54;101757.78;;;32.48;100.00
12801;BME280;6464;42.494;27.470;2022-09-09T12:34:32;101748.09;;;32.73;100.00
12801;BME280;6464;42.494;27.470;2022-09-09T12:37:06;101742.13;;;32.12;100.00
12801;BME280;6464;42.494;27.470;2022-09-09T12:39:40;101745.28;;;32.46;100.00
12801;BME280;6464;42.494;27.470;2022-09-09T12:42:19;101732.34;;;32.09;100.00
12801;BME280;6464;42.494;27.470;2022-09-09T12:44:56;101744.13;;;31.90;100.00
12801;BME280;6464;42.494;27.470;2022-09-09T12:47:30;101728.56;;;31.81;100.00
12801;BME280;6464;42.494;27.470;2022-09-09T12:50:00;101727.72;;;32.48;100.00
12801;BME280;6464;42.494;27.470;2022-09-09T12:52:30;101733.34;;;32.57;100.00
12801;BME280;6464;42.494;27.470;2022-09-09T12:54:59;101733.50;;;32.55;100.00
12801;BME280;6464;42.494;27.470;2022-09-09T12:57:33;101750.13;;;32.62;100.00
12801;BME280;6464;42.494;27.470;2022-09-09T13:00:07;101730.63;;;32.47;100.00
12801;BME280;6464;42.494;27.470;2022-09-09T13:02:46;101737.78;;;32.29;100.00
12801;BME280;6464;42.494;27.470;2022-09-09T13:05:15;101725.81;;;32.68;100.00
12801;BME280;6464;42.494;27.470;2022-09-09T13:07:43;101719.44;;;32.40;100.00
12801;BME280;6464;42.494;27.470;2022-09-09T13:10:11;101733.03;;;32.60;100.00
12801;BME280;6464;42.494;27.470;2022-09-09T13:12:39;101714.25;;;32.18;100.00
12801;BME280;6464;42.494;27.470;2022-09-09T13:15:14;101759.28;;;34.18;100.00
12801;BME280;6464;42.494;27.470;2022-09-09T13:17:50;101785.00;;;35.89;100.00
12801;BME280;6464;42.494;27.470;2022-09-09T13:20:19;101827.19;;;37.51;100.00
12801;BME280;6464;42.494;27.470;2022-09-09T13:22:48;101816.13;;;37.68;100.00
12801;BME280;6464;42.494;27.470;2022-09-09T13:25:22;101769.97;;;36.91;100.00
12801;BME280;6464;42.494;27.470;2022-09-09T13:27:53;101806.50;;;37.08;100.00
12801;BME280;6464;42.494;27.470;2022-09-09T13:30:23;101820.78;;;37.98;100.00
12801;BME280;6464;42.494;27.470;2022-09-09T13:33:05;101812.88;;;39.17;100.00
12801;BME280;6464;42.494;27.470;2022-09-09T13:35:33;101750.53;;;36.85;100.00
12801;BME280;6464;42.494;27.470;2022-09-09T13:38:06;101784.47;;;37.64;100.00
12801;BME280;6464;42.494;27.470;2022-09-09T13:40:34;101813.69;;;38.88;100.00
12801;BME280;6464;42.494;27.470;2022-09-09T13:43:02;101829.16;;;39.71;100.00
12801;BME280;6464;42.494;27.470;2022-09-09T13:45:30;101807.72;;;39.58;100.00
12801;BME280;6464;42.494;27.470;2022-09-09T13:48:08;101791.84;;;39.16;100.00
12801;BME280;6464;42.494;27.470;2022-09-09T13:50:36;101797.06;;;38.96;100.00
12801;BME280;6464;42.494;27.470;2022-09-09T13:53:03;101777.34;;;38.31;100.00
12801;BME280;6464;42.494;27.470;2022-09-09T13:55:30;101801.19;;;39.44;100.00
12801;BME280;6464;42.494;27.470;2022-09-09T13:57:58;101803.41;;;39.85;100.00
12801;BME280;6464;42.494;27.470;2022-09-09T14:00:28;101770.81;;;39.00;100.00
12801;BME280;6464;42.494;27.470;2022-09-09T14:02:55;101786.38;;;39.81;100.00
12801;BME280;6464;42.494;27.470;2022-09-09T14:05:24;101800.75;;;39.77;100.00
12801;BME280;6464;42.494;27.470;2022-09-09T14:07:51;101778.00;;;38.71;100.00
12801;BME280;6464;42.494;27.470;2022-09-09T14:10:18;101771.06;;;38.15;100.00
12801;BME280;6464;42.494;27.470;2022-09-09T14:12:45;101733.59;;;36.24;100.00
12801;BME280;6464;42.494;27.470;2022-09-09T14:15:13;101737.19;;;36.57;100.00
12801;BME280;6464;42.494;27.470;2022-09-09T14:17:40;101749.50;;;37.41;100.00
12801;BME280;6464;42.494;27.470;2022-09-09T14:20:07;101718.91;;;36.97;100.00
12801;BME280;6464;42.494;27.470;2022-09-09T14:22:37;101736.16;;;36.66;100.00
12801;BME280;6464;42.494;27.470;2022-09-09T14:25:05;101681.16;;;35.68;100.00
12801;BME280;6464;42.494;27.470;2022-09-09T14:27:32;101721.50;;;35.92;100.00
12801;BME280;6464;42.494;27.470;2022-09-09T14:29:59;101699.78;;;36.32;100.00
12801;BME280;6464;42.494;27.470;2022-09-09T14:32:26;101700.13;;;35.37;100.00
12801;BME280;6464;42.494;27.470;2022-09-09T14:34:53;101711.09;;;35.37;100.00
12801;BME280;6464;42.494;27.470;2022-09-09T14:37:20;101680.41;;;33.95;100.00
12801;BME280;6464;42.494;27.470;2022-09-09T14:39:48;101615.00;;;33.21;100.00
12801;BME280;6464;42.494;27.470;2022-09-09T14:42:16;101598.50;;;33.84;100.00
12801;BME280;6464;42.494;27.470;2022-09-09T14:44:43;101694.09;;;35.34;100.00
12801;BME280;6464;42.494;27.470;2022-09-09T14:47:10;101686.16;;;33.92;100.00
12801;BME280;6464;42.494;27.470;2022-09-09T14:49:38;101694.56;;;34.53;100.00
12801;BME280;6464;42.494;27.470;2022-09-09T14:52:05;101651.59;;;33.56;100.00
12801;BME280;6464;42.494;27.470;2022-09-09T14:54:32;101650.81;;;33.45;100.00
12801;BME280;6464;42.494;27.470;2022-09-09T14:57:00;101683.25;;;33.13;100.00
12801;BME280;6464;42.494;27.470;2022-09-09T14:59:27;101683.56;;;33.55;100.00
12801;BME280;6464;42.494;27.470;2022-09-09T15:01:54;101664.41;;;32.16;100.00
12801;BME280;6464;42.494;27.470;2022-09-09T15:04:21;101631.09;;;31.73;100.00
12801;BME280;6464;42.494;27.470;2022-09-09T15:06:48;101628.38;;;31.44;100.00
12801;BME280;6464;42.494;27.470;2022-09-09T15:09:17;101644.13;;;31.31;100.00
12801;BME280;6464;42.494;27.470;2022-09-09T15:11:44;101646.50;;;31.84;100.00
12801;BME280;6464;42.494;27.470;2022-09-09T15:14:12;101653.59;;;32.24;100.00
12801;BME280;6464;42.494;27.470;2022-09-09T15:16:40;101613.34;;;31.00;100.00
12801;BME280;6464;42.494;27.470;2022-09-09T15:19:07;101612.97;;;30.74;100.00
12801;BME280;6464;42.494;27.470;2022-09-09T15:21:36;101629.94;;;30.57;100.00
12801;BME280;6464;42.494;27.470;2022-09-09T15:24:03;101623.91;;;28.81;100.00
12801;BME280;6464;42.494;27.470;2022-09-09T15:26:35;101592.25;;;27.90;100.00
12801;BME280;6464;42.494;27.470;2022-09-09T15:29:03;101570.16;;;26.88;100.00
12801;BME280;6464;42.494;27.470;2022-09-09T15:31:32;101566.06;;;26.46;100.00
12801;BME280;6464;42.494;27.470;2022-09-09T15:34:00;101498.03;;;25.88;100.00
12801;BME280;6464;42.494;27.470;2022-09-09T15:36:28;101571.19;;;26.10;100.00
12801;BME280;6464;42.494;27.470;2022-09-09T15:38:57;101543.94;;;25.75;100.00
12801;BME280;6464;42.494;27.470;2022-09-09T15:41:24;101573.16;;;25.83;100.00
12801;BME280;6464;42.494;27.470;2022-09-09T15:43:53;101576.41;;;25.48;100.00
12801;BME280;6464;42.494;27.470;2022-09-09T15:46:25;101569.91;;;25.24;100.00
12801;BME280;6464;42.494;27.470;2022-09-09T15:48:55;101573.91;;;25.18;100.00
12801;BME280;6464;42.494;27.470;2022-09-09T15:51:23;101581.81;;;25.21;100.00
12801;BME280;6464;42.494;27.470;2022-09-09T15:53:54;101552.06;;;24.94;100.00
12801;BME280;6464;42.494;27.470;2022-09-09T15:56:21;101569.09;;;24.95;100.00
12801;BME280;6464;42.494;27.470;2022-09-09T15:58:48;101522.16;;;24.56;100.00
12801;BME280;6464;42.494;27.470;2022-09-09T16:01:15;101503.31;;;24.27;100.00
12801;BME280;6464;42.494;27.470;2022-09-09T16:03:44;101560.78;;;24.71;100.00
12801;BME280;6464;42.494;27.470;2022-09-09T16:06:14;101548.47;;;24.67;100.00
12801;BME280;6464;42.494;27.470;2022-09-09T16:08:44;101572.66;;;24.68;100.00
12801;BME280;6464;42.494;27.470;2022-09-09T16:11:13;101570.91;;;24.67;100.00
12801;BME280;6464;42.494;27.470;2022-09-09T16:13:41;101477.59;;;24.07;100.00
12801;BME280;6464;42.494;27.470;2022-09-09T16:16:11;101568.22;;;24.53;100.00
12801;BME280;6464;42.494;27.470;2022-09-09T16:18:42;101525.66;;;24.15;100.00
12801;BME280;6464;42.494;27.470;2022-09-09T16:21:40;101487.44;;;23.80;100.00
12801;BME280;6464;42.494;27.470;2022-09-09T16:25:10;101510.31;;;23.87;100.00
12801;BME280;6464;42.494;27.470;2022-09-09T16:27:42;101572.50;;;24.13;100.00
12801;BME280;6464;42.494;27.470;2022-09-09T16:30:40;101489.25;;;23.65;100.00
12801;BME280;6464;42.494;27.470;2022-09-09T16:36:19;101560.47;;;23.90;100.00
12801;BME280;6464;42.494;27.470;2022-09-09T16:38:51;101541.00;;;23.70;100.00
12801;BME280;6464;42.494;27.470;2022-09-09T16:41:47;101557.75;;;23.75;100.00
12801;BME280;6464;42.494;27.470;2022-09-09T16:44:59;101541.66;;;23.74;100.00
12801;BME280;6464;42.494;27.470;2022-09-09T16:47:43;101523.81;;;23.57;100.00
12801;BME280;6464;42.494;27.470;2022-09-09T16:50:12;101515.41;;;23.47;100.00
12801;BME280;6464;42.494;27.470;2022-09-09T17:44:22;101463.28;;;23.04;100.00
12801;BME280;6464;42.494;27.470;2022-09-09T17:46:52;101529.16;;;23.43;100.00
12801;BME280;6464;42.494;27.470;2022-09-09T17:49:20;101458.06;;;23.01;100.00
12801;BME280;6464;42.494;27.470;2022-09-09T18:00:52;101488.84;;;23.11;100.00
12801;BME280;6464;42.494;27.470;2022-09-09T18:10:00;101527.22;;;23.15;100.00
12801;BME280;6464;42.494;27.470;2022-09-09T18:12:49;101494.09;;;22.98;100.00
12801;BME280;6464;42.494;27.470;2022-09-09T18:15:29;101561.63;;;23.40;100.00
12801;BME280;6464;42.494;27.470;2022-09-09T18:18:06;101511.59;;;23.21;100.00